sensor_id;sensor_type;location;lat;lon;timestamp;temperature;humidity
71184;DHT22;58887;51.980;4.464;2023-12-20T00:01:46;8.44;81.43
71184;DHT22;58887;51.980;4.464;2023-12-20T00:04:12;8.54;81.55
71184;DHT22;58887;51.980;4.464;2023-12-20T00:06:37;8.58;81.25
71184;DHT22;58887;51.980;4.464;2023-12-20T00:09:03;8.67;80.94
71184;DHT22;58887;51.980;4.464;2023-12-20T00:11:28;8.60;81.31
71184;DHT22;58887;51.980;4.464;2023-12-20T00:13:53;8.50;81.65
71184;DHT22;58887;51.980;4.464;2023-12-20T00:16:19;8.50;81.50
71184;DHT22;58887;51.980;4.464;2023-12-20T00:18:44;8.57;81.47
71184;DHT22;58887;51.980;4.464;2023-12-20T00:21:10;8.51;81.49
71184;DHT22;58887;51.980;4.464;2023-12-20T00:23:35;8.57;81.55
71184;DHT22;58887;51.980;4.464;2023-12-20T00:26:01;8.61;81.26
71184;DHT22;58887;51.980;4.464;2023-12-20T00:28:26;8.53;81.26
71184;DHT22;58887;51.980;4.464;2023-12-20T00:30:51;8.67;81.32
71184;DHT22;58887;51.980;4.464;2023-12-20T00:33:17;8.65;81.02
71184;DHT22;58887;51.980;4.464;2023-12-20T00:35:42;8.64;81.09
71184;DHT22;58887;51.980;4.464;2023-12-20T00:38:08;8.60;80.98
71184;DHT22;58887;51.980;4.464;2023-12-20T00:40:34;8.75;80.49
71184;DHT22;58887;51.980;4.464;2023-12-20T00:43:01;8.68;80.68
71184;DHT22;58887;51.980;4.464;2023-12-20T00:45:26;8.61;80.98
71184;DHT22;58887;51.980;4.464;2023-12-20T00:47:51;8.68;80.57
71184;DHT22;58887;51.980;4.464;2023-12-20T00:50:18;8.71;80.06
71184;DHT22;58887;51.980;4.464;2023-12-20T00:52:43;8.82;80.12
71184;DHT22;58887;51.980;4.464;2023-12-20T00:55:09;8.75;80.06
71184;DHT22;58887;51.980;4.464;2023-12-20T00:57:34;8.71;80.16
71184;DHT22;58887;51.980;4.464;2023-12-20T01:00:01;8.72;80.21
71184;DHT22;58887;51.980;4.464;2023-12-20T01:02:27;8.79;80.00
71184;DHT22;58887;51.980;4.464;2023-12-20T01:04:52;8.75;80.28
71184;DHT22;58887;51.980;4.464;2023-12-20T01:07:18;8.72;80.31
71184;DHT22;58887;51.980;4.464;2023-12-20T01:09:43;8.79;80.39
71184;DHT22;58887;51.980;4.464;2023-12-20T01:12:09;8.74;80.15
71184;DHT22;58887;51.980;4.464;2023-12-20T01:14:35;8.72;80.30
71184;DHT22;58887;51.980;4.464;2023-12-20T01:17:01;8.61;80.58
71184;DHT22;58887;51.980;4.464;2023-12-20T01:19:27;8.82;80.33
71184;DHT22;58887;51.980;4.464;2023-12-20T01:21:55;8.79;80.25
71184;DHT22;58887;51.980;4.464;2023-12-20T01:24:20;8.81;80.01
71184;DHT22;58887;51.980;4.464;2023-12-20T01:26:46;8.82;80.06
71184;DHT22;58887;51.980;4.464;2023-12-20T01:29:11;8.74;79.92
71184;DHT22;58887;51.980;4.464;2023-12-20T01:31:39;8.85;79.88
71184;DHT22;58887;51.980;4.464;2023-12-20T01:34:06;8.86;79.94
71184;DHT22;58887;51.980;4.464;2023-12-20T01:36:31;8.85;79.69
71184;DHT22;58887;51.980;4.464;2023-12-20T01:38:56;8.86;80.02
71184;DHT22;58887;51.980;4.464;2023-12-20T01:41:22;8.92;79.90
71184;DHT22;58887;51.980;4.464;2023-12-20T01:43:47;8.85;79.49
71184;DHT22;58887;51.980;4.464;2023-12-20T01:46:13;8.76;79.61
71184;DHT22;58887;51.980;4.464;2023-12-20T01:48:40;8.79;79.66
71184;DHT22;58887;51.980;4.464;2023-12-20T01:51:05;8.79;79.68
71184;DHT22;58887;51.980;4.464;2023-12-20T01:53:31;8.84;80.03
71184;DHT22;58887;51.980;4.464;2023-12-20T01:55:58;8.81;79.91
71184;DHT22;58887;51.980;4.464;2023-12-20T01:58:25;8.81;80.02
71184;DHT22;58887;51.980;4.464;2023-12-20T02:00:51;8.92;80.13
71184;DHT22;58887;51.980;4.464;2023-12-20T02:03:18;8.82;80.21
71184;DHT22;58887;51.980;4.464;2023-12-20T02:05:45;8.74;80.34
71184;DHT22;58887;51.980;4.464;2023-12-20T02:08:11;8.88;80.27
71184;DHT22;58887;51.980;4.464;2023-12-20T02:10:37;8.72;80.34
71184;DHT22;58887;51.980;4.464;2023-12-20T02:13:04;8.78;80.32
71184;DHT22;58887;51.980;4.464;2023-12-20T02:15:29;8.88;80.24
71184;DHT22;58887;51.980;4.464;2023-12-20T02:17:55;8.89;79.63
71184;DHT22;58887;51.980;4.464;2023-12-20T02:20:21;8.81;79.44
71184;DHT22;58887;51.980;4.464;2023-12-20T02:22:47;8.84;79.30
71184;DHT22;58887;51.980;4.464;2023-12-20T02:25:12;8.82;79.71
71184;DHT22;58887;51.980;4.464;2023-12-20T02:27:39;8.82;79.68
71184;DHT22;58887;51.980;4.464;2023-12-20T02:30:05;8.68;79.84
71184;DHT22;58887;51.980;4.464;2023-12-20T02:32:31;8.68;80.02
71184;DHT22;58887;51.980;4.464;2023-12-20T02:34:57;8.69;80.09
71184;DHT22;58887;51.980;4.464;2023-12-20T02:37:23;8.55;79.65
71184;DHT22;58887;51.980;4.464;2023-12-20T02:39:48;8.45;79.89
71184;DHT22;58887;51.980;4.464;2023-12-20T02:42:14;8.54;79.85
71184;DHT22;58887;51.980;4.464;2023-12-20T02:44:39;8.62;80.15
71184;DHT22;58887;51.980;4.464;2023-12-20T02:47:05;8.74;79.74
71184;DHT22;58887;51.980;4.464;2023-12-20T02:49:30;8.82;79.99
71184;DHT22;58887;51.980;4.464;2023-12-20T02:51:56;8.79;80.09
71184;DHT22;58887;51.980;4.464;2023-12-20T02:54:21;8.79;79.87
71184;DHT22;58887;51.980;4.464;2023-12-20T02:56:47;8.88;79.87
71184;DHT22;58887;51.980;4.464;2023-12-20T02:59:12;8.85;79.66
71184;DHT22;58887;51.980;4.464;2023-12-20T03:01:43;8.85;79.64
71184;DHT22;58887;51.980;4.464;2023-12-20T03:04:09;8.74;79.84
71184;DHT22;58887;51.980;4.464;2023-12-20T03:06:34;8.79;79.28
71184;DHT22;58887;51.980;4.464;2023-12-20T03:09:00;8.76;79.10
71184;DHT22;58887;51.980;4.464;2023-12-20T03:11:28;8.81;79.07
71184;DHT22;58887;51.980;4.464;2023-12-20T03:13:55;8.74;79.10
71184;DHT22;58887;51.980;4.464;2023-12-20T03:16:21;8.74;79.53
71184;DHT22;58887;51.980;4.464;2023-12-20T03:18:46;8.60;79.61
71184;DHT22;58887;51.980;4.464;2023-12-20T03:21:14;8.67;79.59
71184;DHT22;58887;51.980;4.464;2023-12-20T03:23:40;8.58;79.25
71184;DHT22;58887;51.980;4.464;2023-12-20T03:26:09;8.69;79.01
71184;DHT22;58887;51.980;4.464;2023-12-20T03:28:36;8.79;78.77
71184;DHT22;58887;51.980;4.464;2023-12-20T03:31:01;8.69;78.74
71184;DHT22;58887;51.980;4.464;2023-12-20T03:33:28;8.62;79.06
71184;DHT22;58887;51.980;4.464;2023-12-20T03:35:53;8.61;78.96
71184;DHT22;58887;51.980;4.464;2023-12-20T03:38:18;8.54;79.28
71184;DHT22;58887;51.980;4.464;2023-12-20T03:40:44;8.61;78.88
71184;DHT22;58887;51.980;4.464;2023-12-20T03:43:09;8.55;79.03
71184;DHT22;58887;51.980;4.464;2023-12-20T03:45:35;8.54;78.70
71184;DHT22;58887;51.980;4.464;2023-12-20T03:48:00;8.55;79.18
71184;DHT22;58887;51.980;4.464;2023-12-20T03:50:27;8.34;79.54
71184;DHT22;58887;51.980;4.464;2023-12-20T03:52:52;8.34;79.64
71184;DHT22;58887;51.980;4.464;2023-12-20T03:55:18;8.44;79.76
71184;DHT22;58887;51.980;4.464;2023-12-20T03:57:43;8.44;79.62
71184;DHT22;58887;51.980;4.464;2023-12-20T04:00:09;8.34;80.27
71184;DHT22;58887;51.980;4.464;2023-12-20T04:02:36;8.40;80.33
71184;DHT22;58887;51.980;4.464;2023-12-20T04:05:02;8.34;80.27
71184;DHT22;58887;51.980;4.464;2023-12-20T04:07:28;8.48;80.20
71184;DHT22;58887;51.980;4.464;2023-12-20T04:09:53;8.44;80.30
71184;DHT22;58887;51.980;4.464;2023-12-20T04:12:18;8.37;80.55
71184;DHT22;58887;51.980;4.464;2023-12-20T04:14:44;8.37;80.46
71184;DHT22;58887;51.980;4.464;2023-12-20T04:17:09;8.40;80.52
71184;DHT22;58887;51.980;4.464;2023-12-20T04:19:35;8.51;80.23
71184;DHT22;58887;51.980;4.464;2023-12-20T04:22:00;8.34;80.50
71184;DHT22;58887;51.980;4.464;2023-12-20T04:24:26;8.37;80.67
71184;DHT22;58887;51.980;4.464;2023-12-20T04:26:52;8.43;80.56
71184;DHT22;58887;51.980;4.464;2023-12-20T04:29:17;8.40;80.33
71184;DHT22;58887;51.980;4.464;2023-12-20T04:31:43;8.37;80.17
71184;DHT22;58887;51.980;4.464;2023-12-20T04:34:08;8.34;79.81
71184;DHT22;58887;51.980;4.464;2023-12-20T04:36:34;8.44;79.27
71184;DHT22;58887;51.980;4.464;2023-12-20T04:38:59;8.32;79.10
71184;DHT22;58887;51.980;4.464;2023-12-20T04:41:25;8.32;79.08
71184;DHT22;58887;51.980;4.464;2023-12-20T04:43:50;8.24;79.22
71184;DHT22;58887;51.980;4.464;2023-12-20T04:46:16;8.36;79.10
71184;DHT22;58887;51.980;4.464;2023-12-20T04:48:41;8.33;79.15
71184;DHT22;58887;51.980;4.464;2023-12-20T04:51:07;8.24;79.47
71184;DHT22;58887;51.980;4.464;2023-12-20T04:53:32;8.26;79.75
71184;DHT22;58887;51.980;4.464;2023-12-20T04:55:58;8.32;79.19
71184;DHT22;58887;51.980;4.464;2023-12-20T04:58:23;8.30;79.53
71184;DHT22;58887;51.980;4.464;2023-12-20T05:00:50;8.33;79.63
71184;DHT22;58887;51.980;4.464;2023-12-20T05:03:15;8.34;79.94
71184;DHT22;58887;51.980;4.464;2023-12-20T05:05:41;8.36;79.83
71184;DHT22;58887;51.980;4.464;2023-12-20T05:08:06;8.32;80.23
71184;DHT22;58887;51.980;4.464;2023-12-20T05:10:31;8.30;79.88
71184;DHT22;58887;51.980;4.464;2023-12-20T05:12:57;8.29;80.05
71184;DHT22;58887;51.980;4.464;2023-12-20T05:15:22;8.29;80.34
71184;DHT22;58887;51.980;4.464;2023-12-20T05:17:48;8.24;80.73
71184;DHT22;58887;51.980;4.464;2023-12-20T05:20:15;8.24;80.69
71184;DHT22;58887;51.980;4.464;2023-12-20T05:22:41;8.24;80.69
71184;DHT22;58887;51.980;4.464;2023-12-20T05:25:07;8.22;81.23
71184;DHT22;58887;51.980;4.464;2023-12-20T05:27:32;8.23;81.13
71184;DHT22;58887;51.980;4.464;2023-12-20T05:29:59;8.29;81.13
71184;DHT22;58887;51.980;4.464;2023-12-20T05:32:24;8.17;81.48
71184;DHT22;58887;51.980;4.464;2023-12-20T05:34:50;8.16;81.63
71184;DHT22;58887;51.980;4.464;2023-12-20T05:37:15;8.26;81.38
71184;DHT22;58887;51.980;4.464;2023-12-20T05:39:41;8.38;81.05
71184;DHT22;58887;51.980;4.464;2023-12-20T05:42:06;8.27;81.18
71184;DHT22;58887;51.980;4.464;2023-12-20T05:44:32;8.36;80.79
71184;DHT22;58887;51.980;4.464;2023-12-20T05:46:57;8.44;80.43
71184;DHT22;58887;51.980;4.464;2023-12-20T05:49:23;8.45;80.23
71184;DHT22;58887;51.980;4.464;2023-12-20T05:51:48;8.55;80.04
71184;DHT22;58887;51.980;4.464;2023-12-20T05:54:14;8.58;79.98
71184;DHT22;58887;51.980;4.464;2023-12-20T05:56:39;8.50;80.39
71184;DHT22;58887;51.980;4.464;2023-12-20T05:59:04;8.53;80.21
71184;DHT22;58887;51.980;4.464;2023-12-20T06:01:30;8.60;80.18
71184;DHT22;58887;51.980;4.464;2023-12-20T06:03:55;8.64;80.03
71184;DHT22;58887;51.980;4.464;2023-12-20T06:06:21;8.57;80.13
71184;DHT22;58887;51.980;4.464;2023-12-20T06:08:46;8.68;80.00
71184;DHT22;58887;51.980;4.464;2023-12-20T06:11:12;8.67;79.92
71184;DHT22;58887;51.980;4.464;2023-12-20T06:13:38;8.74;79.55
71184;DHT22;58887;51.980;4.464;2023-12-20T06:16:05;8.85;79.26
71184;DHT22;58887;51.980;4.464;2023-12-20T06:18:31;8.92;79.22
71184;DHT22;58887;51.980;4.464;2023-12-20T06:20:56;8.82;79.47
71184;DHT22;58887;51.980;4.464;2023-12-20T06:23:22;8.79;79.49
71184;DHT22;58887;51.980;4.464;2023-12-20T06:25:47;8.85;79.49
71184;DHT22;58887;51.980;4.464;2023-12-20T06:28:12;8.86;79.33
71184;DHT22;58887;51.980;4.464;2023-12-20T06:30:40;8.85;79.49
71184;DHT22;58887;51.980;4.464;2023-12-20T06:33:05;8.91;79.11
71184;DHT22;58887;51.980;4.464;2023-12-20T06:35:32;8.82;79.40
71184;DHT22;58887;51.980;4.464;2023-12-20T06:37:57;8.89;79.56
71184;DHT22;58887;51.980;4.464;2023-12-20T06:40:23;8.85;79.61
71184;DHT22;58887;51.980;4.464;2023-12-20T06:42:48;8.76;79.78
71184;DHT22;58887;51.980;4.464;2023-12-20T06:45:14;8.81;79.60
71184;DHT22;58887;51.980;4.464;2023-12-20T06:47:39;8.78;79.78
71184;DHT22;58887;51.980;4.464;2023-12-20T06:50:05;8.75;79.85
71184;DHT22;58887;51.980;4.464;2023-12-20T06:52:31;8.74;79.65
71184;DHT22;58887;51.980;4.464;2023-12-20T06:54:56;8.82;79.69
71184;DHT22;58887;51.980;4.464;2023-12-20T06:57:21;8.72;79.92
71184;DHT22;58887;51.980;4.464;2023-12-20T06:59:47;8.72;80.13
71184;DHT22;58887;51.980;4.464;2023-12-20T07:02:12;8.72;80.16
71184;DHT22;58887;51.980;4.464;2023-12-20T07:04:41;8.74;80.19
71184;DHT22;58887;51.980;4.464;2023-12-20T07:07:07;8.74;79.92
71184;DHT22;58887;51.980;4.464;2023-12-20T07:09:33;8.58;80.30
71184;DHT22;58887;51.980;4.464;2023-12-20T07:11:59;8.57;80.67
71184;DHT22;58887;51.980;4.464;2023-12-20T07:14:24;8.51;80.61
71184;DHT22;58887;51.980;4.464;2023-12-20T07:16:50;8.53;80.67
71184;DHT22;58887;51.980;4.464;2023-12-20T07:19:15;8.47;80.76
71184;DHT22;58887;51.980;4.464;2023-12-20T07:21:41;8.58;80.47
71184;DHT22;58887;51.980;4.464;2023-12-20T07:24:06;8.53;80.68
71184;DHT22;58887;51.980;4.464;2023-12-20T07:26:32;8.48;80.79
71184;DHT22;58887;51.980;4.464;2023-12-20T07:28:57;8.38;81.07
71184;DHT22;58887;51.980;4.464;2023-12-20T07:31:24;8.48;80.99
71184;DHT22;58887;51.980;4.464;2023-12-20T07:33:49;8.50;80.75
71184;DHT22;58887;51.980;4.464;2023-12-20T07:36:15;8.47;80.97
71184;DHT22;58887;51.980;4.464;2023-12-20T07:38:40;8.51;80.71
71184;DHT22;58887;51.980;4.464;2023-12-20T07:41:09;8.48;80.82
71184;DHT22;58887;51.980;4.464;2023-12-20T07:43:35;8.51;80.75
71184;DHT22;58887;51.980;4.464;2023-12-20T07:46:06;8.54;80.78
71184;DHT22;58887;51.980;4.464;2023-12-20T07:48:33;8.62;80.41
71184;DHT22;58887;51.980;4.464;2023-12-20T07:50:59;8.57;80.54
71184;DHT22;58887;51.980;4.464;2023-12-20T07:53:25;8.61;80.45
71184;DHT22;58887;51.980;4.464;2023-12-20T07:55:50;8.71;80.49
71184;DHT22;58887;51.980;4.464;2023-12-20T07:58:17;8.74;80.56
71184;DHT22;58887;51.980;4.464;2023-12-20T08:00:43;8.69;80.87
71184;DHT22;58887;51.980;4.464;2023-12-20T08:03:09;8.85;80.54
71184;DHT22;58887;51.980;4.464;2023-12-20T08:05:35;8.82;80.79
71184;DHT22;58887;51.980;4.464;2023-12-20T08:08:00;8.88;80.80
71184;DHT22;58887;51.980;4.464;2023-12-20T08:10:26;8.88;80.75
71184;DHT22;58887;51.980;4.464;2023-12-20T08:12:52;8.93;80.65
71184;DHT22;58887;51.980;4.464;2023-12-20T08:15:17;8.86;80.97
71184;DHT22;58887;51.980;4.464;2023-12-20T08:17:43;8.99;80.53
71184;DHT22;58887;51.980;4.464;2023-12-20T08:20:08;9.02;80.64
71184;DHT22;58887;51.980;4.464;2023-12-20T08:22:34;9.08;80.38
71184;DHT22;58887;51.980;4.464;2023-12-20T08:24:59;8.99;80.79
71184;DHT22;58887;51.980;4.464;2023-12-20T08:27:25;9.08;80.33
71184;DHT22;58887;51.980;4.464;2023-12-20T08:29:51;9.16;80.19
71184;DHT22;58887;51.980;4.464;2023-12-20T08:32:16;9.27;79.96
71184;DHT22;58887;51.980;4.464;2023-12-20T08:34:42;9.23;79.93
71184;DHT22;58887;51.980;4.464;2023-12-20T08:37:07;9.30;79.53
71184;DHT22;58887;51.980;4.464;2023-12-20T08:39:33;9.34;79.53
71184;DHT22;58887;51.980;4.464;2023-12-20T08:41:59;9.34;79.48
71184;DHT22;58887;51.980;4.464;2023-12-20T08:44:24;9.33;79.61
71184;DHT22;58887;51.980;4.464;2023-12-20T08:46:50;9.39;79.73
71184;DHT22;58887;51.980;4.464;2023-12-20T08:49:16;9.37;79.78
71184;DHT22;58887;51.980;4.464;2023-12-20T08:51:42;9.30;79.98
71184;DHT22;58887;51.980;4.464;2023-12-20T08:54:07;9.42;79.49
71184;DHT22;58887;51.980;4.464;2023-12-20T08:56:34;9.39;79.57
71184;DHT22;58887;51.980;4.464;2023-12-20T08:59:00;9.43;79.58
71184;DHT22;58887;51.980;4.464;2023-12-20T09:01:25;9.54;79.53
71184;DHT22;58887;51.980;4.464;2023-12-20T09:03:50;9.63;79.11
71184;DHT22;58887;51.980;4.464;2023-12-20T09:06:16;9.60;79.20
71184;DHT22;58887;51.980;4.464;2023-12-20T09:08:41;9.69;79.16
71184;DHT22;58887;51.980;4.464;2023-12-20T09:11:07;9.69;79.16
71184;DHT22;58887;51.980;4.464;2023-12-20T09:13:32;9.58;79.36
71184;DHT22;58887;51.980;4.464;2023-12-20T09:15:58;9.69;79.38
71184;DHT22;58887;51.980;4.464;2023-12-20T09:18:23;9.73;79.10
71184;DHT22;58887;51.980;4.464;2023-12-20T09:20:49;9.80;78.62
71184;DHT22;58887;51.980;4.464;2023-12-20T09:23:15;9.91;78.83
71184;DHT22;58887;51.980;4.464;2023-12-20T09:25:40;9.84;78.90
71184;DHT22;58887;51.980;4.464;2023-12-20T09:28:06;9.82;78.93
71184;DHT22;58887;51.980;4.464;2023-12-20T09:30:31;9.82;78.75
71184;DHT22;58887;51.980;4.464;2023-12-20T09:32:58;9.85;79.24
71184;DHT22;58887;51.980;4.464;2023-12-20T09:35:23;9.82;79.33
71184;DHT22;58887;51.980;4.464;2023-12-20T09:37:49;9.91;79.15
71184;DHT22;58887;51.980;4.464;2023-12-20T09:40:18;10.02;78.94
71184;DHT22;58887;51.980;4.464;2023-12-20T09:42:58;9.91;78.93
71184;DHT22;58887;51.980;4.464;2023-12-20T09:45:24;10.02;79.35
71184;DHT22;58887;51.980;4.464;2023-12-20T09:47:52;10.02;78.84
71184;DHT22;58887;51.980;4.464;2023-12-20T09:50:20;10.15;78.77
71184;DHT22;58887;51.980;4.464;2023-12-20T09:52:50;10.32;78.45
71184;DHT22;58887;51.980;4.464;2023-12-20T09:55:17;10.21;78.34
71184;DHT22;58887;51.980;4.464;2023-12-20T09:57:43;10.23;78.32
71184;DHT22;58887;51.980;4.464;2023-12-20T10:00:09;10.25;78.62
71184;DHT22;58887;51.980;4.464;2023-12-20T10:02:41;10.18;78.32
71184;DHT22;58887;51.980;4.464;2023-12-20T10:05:08;10.11;78.51
71184;DHT22;58887;51.980;4.464;2023-12-20T10:07:35;10.09;78.13
71184;DHT22;58887;51.980;4.464;2023-12-20T10:10:02;10.15;78.07
71184;DHT22;58887;51.980;4.464;2023-12-20T10:12:27;10.25;77.76
71184;DHT22;58887;51.980;4.464;2023-12-20T10:14:53;10.35;77.86
71184;DHT22;58887;51.980;4.464;2023-12-20T10:17:18;10.45;77.43
71184;DHT22;58887;51.980;4.464;2023-12-20T10:19:44;10.43;77.30
71184;DHT22;58887;51.980;4.464;2023-12-20T10:22:10;10.53;77.07
71184;DHT22;58887;51.980;4.464;2023-12-20T10:24:35;10.21;78.03
71184;DHT22;58887;51.980;4.464;2023-12-20T10:27:05;10.25;77.73
71184;DHT22;58887;51.980;4.464;2023-12-20T10:29:40;10.39;77.85
71184;DHT22;58887;51.980;4.464;2023-12-20T10:34:47;10.31;77.60
71184;DHT22;58887;51.980;4.464;2023-12-20T10:37:13;10.36;77.73
71184;DHT22;58887;51.980;4.464;2023-12-20T10:39:38;10.33;77.95
71184;DHT22;58887;51.980;4.464;2023-12-20T10:42:05;10.38;77.95
71184;DHT22;58887;51.980;4.464;2023-12-20T10:44:31;10.33;78.19
71184;DHT22;58887;51.980;4.464;2023-12-20T10:46:56;10.32;78.46
71184;DHT22;58887;51.980;4.464;2023-12-20T10:49:25;10.29;78.74
71184;DHT22;58887;51.980;4.464;2023-12-20T10:51:54;10.26;78.59
71184;DHT22;58887;51.980;4.464;2023-12-20T10:54:20;10.52;78.30
71184;DHT22;58887;51.980;4.464;2023-12-20T10:56:46;10.53;77.83
71184;DHT22;58887;51.980;4.464;2023-12-20T10:59:16;10.56;77.82
71184;DHT22;58887;51.980;4.464;2023-12-20T11:01:44;10.76;77.81
71184;DHT22;58887;51.980;4.464;2023-12-20T11:04:22;10.67;77.50
71184;DHT22;58887;51.980;4.464;2023-12-20T11:07:32;10.83;77.55
71184;DHT22;58887;51.980;4.464;2023-12-20T11:10:02;10.87;76.97
71184;DHT22;58887;51.980;4.464;2023-12-20T11:12:38;10.64;77.52
71184;DHT22;58887;51.980;4.464;2023-12-20T11:15:07;10.66;77.16
71184;DHT22;58887;51.980;4.464;2023-12-20T11:17:33;10.71;77.60
71184;DHT22;58887;51.980;4.464;2023-12-20T11:22:26;10.71;77.65
71184;DHT22;58887;51.980;4.464;2023-12-20T11:24:52;10.67;78.01
71184;DHT22;58887;51.980;4.464;2023-12-20T11:27:19;10.66;77.27
71184;DHT22;58887;51.980;4.464;2023-12-20T11:29:53;10.76;77.24
71184;DHT22;58887;51.980;4.464;2023-12-20T11:35:17;10.71;76.58
71184;DHT22;58887;51.980;4.464;2023-12-20T11:37:43;10.90;76.53
71184;DHT22;58887;51.980;4.464;2023-12-20T11:40:14;10.90;76.40
71184;DHT22;58887;51.980;4.464;2023-12-20T11:42:44;10.79;76.39
71184;DHT22;58887;51.980;4.464;2023-12-20T11:45:16;10.83;76.36
71184;DHT22;58887;51.980;4.464;2023-12-20T11:47:46;10.90;76.33
71184;DHT22;58887;51.980;4.464;2023-12-20T11:50:12;10.94;76.52
71184;DHT22;58887;51.980;4.464;2023-12-20T11:52:38;10.83;76.59
71184;DHT22;58887;51.980;4.464;2023-12-20T11:55:04;10.83;76.92
71184;DHT22;58887;51.980;4.464;2023-12-20T11:57:30;10.87;76.82
71184;DHT22;58887;51.980;4.464;2023-12-20T11:59:56;10.87;77.24
71184;DHT22;58887;51.980;4.464;2023-12-20T12:02:22;10.77;76.93
71184;DHT22;58887;51.980;4.464;2023-12-20T12:04:49;10.84;77.37
71184;DHT22;58887;51.980;4.464;2023-12-20T12:07:18;11.00;77.16
71184;DHT22;58887;51.980;4.464;2023-12-20T12:09:44;10.77;77.18
71184;DHT22;58887;51.980;4.464;2023-12-20T12:12:11;10.91;76.89
71184;DHT22;58887;51.980;4.464;2023-12-20T12:14:38;11.03;76.62
71184;DHT22;58887;51.980;4.464;2023-12-20T12:17:04;10.94;77.05
71184;DHT22;58887;51.980;4.464;2023-12-20T12:19:30;11.00;76.95
71184;DHT22;58887;51.980;4.464;2023-12-20T12:24:47;11.07;75.79
71184;DHT22;58887;51.980;4.464;2023-12-20T12:27:15;11.07;75.43
71184;DHT22;58887;51.980;4.464;2023-12-20T12:30:00;11.15;76.49
71184;DHT22;58887;51.980;4.464;2023-12-20T12:32:25;10.99;75.81
71184;DHT22;58887;51.980;4.464;2023-12-20T12:34:51;11.08;76.17
71184;DHT22;58887;51.980;4.464;2023-12-20T12:37:17;11.12;76.13
71184;DHT22;58887;51.980;4.464;2023-12-20T12:39:42;11.06;75.88
71184;DHT22;58887;51.980;4.464;2023-12-20T12:42:08;11.11;76.17
71184;DHT22;58887;51.980;4.464;2023-12-20T12:44:33;11.06;75.92
71184;DHT22;58887;51.980;4.464;2023-12-20T12:46:59;11.08;75.53
71184;DHT22;58887;51.980;4.464;2023-12-20T12:49:24;10.99;75.75
71184;DHT22;58887;51.980;4.464;2023-12-20T12:51:50;10.80;76.32
71184;DHT22;58887;51.980;4.464;2023-12-20T12:54:16;10.85;76.62
71184;DHT22;58887;51.980;4.464;2023-12-20T12:56:43;10.66;77.28
71184;DHT22;58887;51.980;4.464;2023-12-20T12:59:09;10.64;77.44
71184;DHT22;58887;51.980;4.464;2023-12-20T13:01:35;10.62;78.06
71184;DHT22;58887;51.980;4.464;2023-12-20T13:04:01;10.57;77.99
71184;DHT22;58887;51.980;4.464;2023-12-20T13:06:32;10.45;78.13
71184;DHT22;58887;51.980;4.464;2023-12-20T13:08:58;10.55;78.25
71184;DHT22;58887;51.980;4.464;2023-12-20T13:11:23;10.59;78.06
71184;DHT22;58887;51.980;4.464;2023-12-20T13:13:50;10.52;78.35
71184;DHT22;58887;51.980;4.464;2023-12-20T13:16:15;10.52;78.40
71184;DHT22;58887;51.980;4.464;2023-12-20T13:18:41;10.23;79.17
71184;DHT22;58887;51.980;4.464;2023-12-20T13:21:08;10.25;79.15
71184;DHT22;58887;51.980;4.464;2023-12-20T13:23:34;10.33;78.95
71184;DHT22;58887;51.980;4.464;2023-12-20T13:26:00;10.31;78.87
71184;DHT22;58887;51.980;4.464;2023-12-20T13:28:26;10.25;79.16
71184;DHT22;58887;51.980;4.464;2023-12-20T13:30:51;10.13;79.46
71184;DHT22;58887;51.980;4.464;2023-12-20T13:33:17;10.18;79.52
71184;DHT22;58887;51.980;4.464;2023-12-20T13:35:42;10.21;79.72
71184;DHT22;58887;51.980;4.464;2023-12-20T13:38:08;10.23;79.56
71184;DHT22;58887;51.980;4.464;2023-12-20T13:40:33;10.32;79.44
71184;DHT22;58887;51.980;4.464;2023-12-20T13:42:59;10.23;79.76
71184;DHT22;58887;51.980;4.464;2023-12-20T13:45:24;10.25;79.64
71184;DHT22;58887;51.980;4.464;2023-12-20T13:47:50;10.19;79.54
71184;DHT22;58887;51.980;4.464;2023-12-20T13:50:16;10.18;79.54
71184;DHT22;58887;51.980;4.464;2023-12-20T13:52:41;10.15;79.78
71184;DHT22;58887;51.980;4.464;2023-12-20T13:55:07;10.15;79.72
71184;DHT22;58887;51.980;4.464;2023-12-20T13:57:33;10.21;79.90
71184;DHT22;58887;51.980;4.464;2023-12-20T13:59:59;10.26;79.55
71184;DHT22;58887;51.980;4.464;2023-12-20T14:02:25;10.26;79.61
71184;DHT22;58887;51.980;4.464;2023-12-20T14:04:52;10.26;79.53
71184;DHT22;58887;51.980;4.464;2023-12-20T14:07:18;10.18;80.23
71184;DHT22;58887;51.980;4.464;2023-12-20T14:09:44;10.21;80.40
71184;DHT22;58887;51.980;4.464;2023-12-20T14:12:14;10.09;80.92
71184;DHT22;58887;51.980;4.464;2023-12-20T14:14:39;10.02;81.02
71184;DHT22;58887;51.980;4.464;2023-12-20T14:17:04;10.01;81.53
71184;DHT22;58887;51.980;4.464;2023-12-20T14:19:32;10.01;81.84
71184;DHT22;58887;51.980;4.464;2023-12-20T14:21:58;10.01;81.87
71184;DHT22;58887;51.980;4.464;2023-12-20T14:24:27;10.01;81.69
71184;DHT22;58887;51.980;4.464;2023-12-20T14:26:53;9.91;81.97
71184;DHT22;58887;51.980;4.464;2023-12-20T14:29:18;10.08;81.72
71184;DHT22;58887;51.980;4.464;2023-12-20T14:31:43;10.11;81.64
71184;DHT22;58887;51.980;4.464;2023-12-20T14:34:09;10.03;81.50
71184;DHT22;58887;51.980;4.464;2023-12-20T14:36:35;9.98;81.39
71184;DHT22;58887;51.980;4.464;2023-12-20T14:39:00;10.11;81.13
71184;DHT22;58887;51.980;4.464;2023-12-20T14:41:26;10.06;81.32
71184;DHT22;58887;51.980;4.464;2023-12-20T14:43:52;10.02;81.30
71184;DHT22;58887;51.980;4.464;2023-12-20T14:46:18;10.06;81.01
71184;DHT22;58887;51.980;4.464;2023-12-20T14:48:44;10.02;81.09
71184;DHT22;58887;51.980;4.464;2023-12-20T14:51:09;10.16;80.75
71184;DHT22;58887;51.980;4.464;2023-12-20T14:53:37;10.13;80.75
71184;DHT22;58887;51.980;4.464;2023-12-20T14:56:06;10.15;80.89
71184;DHT22;58887;51.980;4.464;2023-12-20T14:58:32;10.11;81.17
71184;DHT22;58887;51.980;4.464;2023-12-20T15:00:58;10.06;81.36
71184;DHT22;58887;51.980;4.464;2023-12-20T15:03:23;10.12;81.49
71184;DHT22;58887;51.980;4.464;2023-12-20T15:05:49;10.11;81.46
71184;DHT22;58887;51.980;4.464;2023-12-20T15:08:15;10.08;81.97
71184;DHT22;58887;51.980;4.464;2023-12-20T15:10:40;9.84;82.92
71184;DHT22;58887;51.980;4.464;2023-12-20T15:13:06;9.94;82.91
71184;DHT22;58887;51.980;4.464;2023-12-20T15:15:31;9.87;82.95
71184;DHT22;58887;51.980;4.464;2023-12-20T15:18:01;9.81;83.54
71184;DHT22;58887;51.980;4.464;2023-12-20T15:20:30;9.77;83.83
71184;DHT22;58887;51.980;4.464;2023-12-20T15:22:58;9.81;83.75
71184;DHT22;58887;51.980;4.464;2023-12-20T15:25:29;9.87;83.69
71184;DHT22;58887;51.980;4.464;2023-12-20T15:27:55;9.80;84.04
71184;DHT22;58887;51.980;4.464;2023-12-20T15:30:21;9.80;83.97
71184;DHT22;58887;51.980;4.464;2023-12-20T15:32:49;9.81;83.85
71184;DHT22;58887;51.980;4.464;2023-12-20T15:35:15;9.82;84.09
71184;DHT22;58887;51.980;4.464;2023-12-20T15:37:40;9.94;83.85
71184;DHT22;58887;51.980;4.464;2023-12-20T15:40:10;9.88;83.88
71184;DHT22;58887;51.980;4.464;2023-12-20T15:42:37;9.84;83.96
71184;DHT22;58887;51.980;4.464;2023-12-20T15:45:04;9.69;84.49